Treberon — FGD8075 — position and weather

sailwx.info

Track history (hours):
 
Tides and Currents Weather Stations Pressure Air Temp Water Temp Dewpoint Dewpoint Depression Visibility Wind Speed Wind Dir Waves Ship Positions

Treberon

Last reported at 2018-Jun-18 06:01 UTC. Time now 2018-Jun-18 06:00 UTC.
Position N 48°21' W 004°29'.

MMSI: 226544246.

Date/timePositionNaut miles runAvg speedWind from/ knotsBaromVisibWave heightAir tempDewpointWater temp
2018-Jun-18 06:01N 48°21' W 004°29'1 1.3
2018-Jun-18 05:30N 48°20' W 004°29'  
2018-Jun-15 14:52N 48°23' W 004°30'511.2
2018-Jun-15 14:27N 48°18' W 004°31'5 1.7
2018-Jun-15 11:35N 48°22' W 004°29'116.5
2018-Jun-15 11:30N 48°21' W 004°29'4 7.6
2018-Jun-15 11:01N 48°18' W 004°27'2 3.2
2018-Jun-15 10:30N 48°19' W 004°28'3 0.7
2018-Jun-15 06:08N 48°22' W 004°29'217.0
2018-Jun-15 06:00N 48°20' W 004°29'1 1.0
2018-Jun-15 05:30N 48°20' W 004°29'2 0.2
2018-Jun-14 16:55N 48°22' W 004°29'410.7
2018-Jun-14 16:30N 48°18' W 004°30'2 4.4
2018-Jun-14 16:00N 48°19' W 004°27'4 3.7
2018-Jun-14 14:59N 48°23' W 004°30'5 6.5
2018-Jun-14 14:14N 48°18' W 004°31'415.8
2018-Jun-14 14:00N 48°21' W 004°29'1 0.2
2018-Jun-14 06:22N 48°23' W 004°30'510.1
2018-Jun-14 05:53N 48°18' W 004°31'5 0.3
2018-Jun-13 16:59N 48°22' W 004°29'4 8.7
2018-Jun-13 16:29N 48°18' W 004°29'2 3.2
2018-Jun-13 16:00N 48°19' W 004°27'4 3.8
2018-Jun-13 14:58N 48°23' W 004°30'5 7.0
2018-Jun-13 14:16N 48°18' W 004°31'415.7
2018-Jun-13 14:00N 48°22' W 004°29'1 0.1
2018-Jun-13 07:38N 48°23' W 004°30'215.6
2018-Jun-13 07:31N 48°21' W 004°29'2 3.1
2018-Jun-13 07:00N 48°19' W 004°28'0 0.6
2018-Jun-13 06:31N 48°19' W 004°28'2 3.7
2018-Jun-13 05:52N 48°18' W 004°31'5 0.4
2018-Jun-12 16:58N 48°23' W 004°30'510.9
2018-Jun-12 16:31N 48°18' W 004°30'3 5.2
2018-Jun-12 16:00N 48°19' W 004°27'4 4.1
2018-Jun-12 14:57N 48°22' W 004°29'510.4
2018-Jun-12 14:30N 48°18' W 004°31'3 6.0
2018-Jun-12 14:01N 48°21' W 004°29'2 0.2
2018-Jun-12 06:20N 48°22' W 004°29'5 9.9
2018-Jun-12 05:51N 48°18' W 004°30'5 0.4
2018-Jun-11 16:58N 48°23' W 004°30'510.2
2018-Jun-11 16:30N 48°18' W 004°30'2 4.4
2018-Jun-11 16:00N 48°19' W 004°27'4 4.0
2018-Jun-11 14:58N 48°23' W 004°30'5 7.2
2018-Jun-11 14:17N 48°18' W 004°31'413.8
2018-Jun-11 14:00N 48°22' W 004°29'1 0.1
2018-Jun-11 06:25N 48°22' W 004°31'4 8.6
2018-Jun-11 05:54N 48°18' W 004°30'5 0.2
2018-Jun-10 07:40N 48°23' W 004°30'317.3
2018-Jun-10 07:30N 48°20' W 004°29'3 6.8
2018-Jun-10 07:00N 48°18' W 004°25'1 1.3
2018-Jun-10 06:22N 48°17' W 004°25'0 1.3
2018-Jun-10 06:00N 48°18' W 004°25'4 7.3
2018-Jun-10 05:30N 48°19' W 004°29'2 0.1
2018-Jun-09 07:36N 48°22' W 004°29'218.9
2018-Jun-09 07:30N 48°20' W 004°29'3 6.3
2018-Jun-09 07:00N 48°18' W 004°26'1 1.0
2018-Jun-09 06:03N 48°17' W 004°25'0 9.5
2018-Jun-09 06:00N 48°17' W 004°25'4 7.7
2018-Jun-09 05:30N 48°20' W 004°29'2 0.2
2018-Jun-08 16:53N 48°22' W 004°29'411.0
2018-Jun-08 16:30N 48°18' W 004°30'3 5.5
2018-Jun-08 16:00N 48°19' W 004°26'5 4.7
2018-Jun-08 15:00N 48°23' W 004°30'5 6.8
2018-Jun-08 14:16N 48°18' W 004°31'312.1
2018-Jun-08 14:00N 48°21' W 004°29'2 0.4
2018-Jun-08 07:45N 48°23' W 004°30'0 0.0
2018-Jun-08 07:30N 48°23' W 004°30'0 0.0
2018-Jun-08 07:00N 48°23' W 004°30'0 0.2
2018-Jun-08 06:24N 48°23' W 004°30'  
Track history (hours):
 
Tides and Currents Weather Stations Pressure Air Temp Water Temp Dewpoint Dewpoint Depression Visibility Wind Speed Wind Dir Waves Ship Positions

Treberon

Last reported at 2018-Jun-18 06:01 UTC. Time now 2018-Jun-18 06:00 UTC.
Position N 48°21' W 004°29'.

MMSI: 226544246.

Date/timePositionNaut miles runAvg speedWind from/ knotsBaromVisibWave heightAir tempDewpointWater temp
2018-Jun-18 06:01N 48°21' W 004°29'1 1.3
2018-Jun-18 05:30N 48°20' W 004°29'  
2018-Jun-15 14:52N 48°23' W 004°30'511.2
2018-Jun-15 14:27N 48°18' W 004°31'5 1.7
2018-Jun-15 11:35N 48°22' W 004°29'116.5
2018-Jun-15 11:30N 48°21' W 004°29'4 7.6
2018-Jun-15 11:01N 48°18' W 004°27'2 3.2
2018-Jun-15 10:30N 48°19' W 004°28'3 0.7
2018-Jun-15 06:08N 48°22' W 004°29'217.0
2018-Jun-15 06:00N 48°20' W 004°29'1 1.0
2018-Jun-15 05:30N 48°20' W 004°29'2 0.2
2018-Jun-14 16:55N 48°22' W 004°29'410.7
2018-Jun-14 16:30N 48°18' W 004°30'2 4.4
2018-Jun-14 16:00N 48°19' W 004°27'4 3.7
2018-Jun-14 14:59N 48°23' W 004°30'5 6.5
2018-Jun-14 14:14N 48°18' W 004°31'415.8
2018-Jun-14 14:00N 48°21' W 004°29'1 0.2
2018-Jun-14 06:22N 48°23' W 004°30'510.1
2018-Jun-14 05:53N 48°18' W 004°31'5 0.3
2018-Jun-13 16:59N 48°22' W 004°29'4 8.7
2018-Jun-13 16:29N 48°18' W 004°29'2 3.2
2018-Jun-13 16:00N 48°19' W 004°27'4 3.8
2018-Jun-13 14:58N 48°23' W 004°30'5 7.0
2018-Jun-13 14:16N 48°18' W 004°31'415.7
2018-Jun-13 14:00N 48°22' W 004°29'1 0.1
2018-Jun-13 07:38N 48°23' W 004°30'215.6
2018-Jun-13 07:31N 48°21' W 004°29'2 3.1
2018-Jun-13 07:00N 48°19' W 004°28'0 0.6
2018-Jun-13 06:31N 48°19' W 004°28'2 3.7
2018-Jun-13 05:52N 48°18' W 004°31'5 0.4
2018-Jun-12 16:58N 48°23' W 004°30'510.9
2018-Jun-12 16:31N 48°18' W 004°30'3 5.2
2018-Jun-12 16:00N 48°19' W 004°27'4 4.1
2018-Jun-12 14:57N 48°22' W 004°29'510.4
2018-Jun-12 14:30N 48°18' W 004°31'3 6.0
2018-Jun-12 14:01N 48°21' W 004°29'2 0.2
2018-Jun-12 06:20N 48°22' W 004°29'5 9.9
2018-Jun-12 05:51N 48°18' W 004°30'5 0.4
2018-Jun-11 16:58N 48°23' W 004°30'510.2
2018-Jun-11 16:30N 48°18' W 004°30'2 4.4
2018-Jun-11 16:00N 48°19' W 004°27'4 4.0
2018-Jun-11 14:58N 48°23' W 004°30'5 7.2
2018-Jun-11 14:17N 48°18' W 004°31'413.8
2018-Jun-11 14:00N 48°22' W 004°29'1 0.1
2018-Jun-11 06:25N 48°22' W 004°31'4 8.6
2018-Jun-11 05:54N 48°18' W 004°30'5 0.2
2018-Jun-10 07:40N 48°23' W 004°30'317.3
2018-Jun-10 07:30N 48°20' W 004°29'3 6.8
2018-Jun-10 07:00N 48°18' W 004°25'1 1.3
2018-Jun-10 06:22N 48°17' W 004°25'0 1.3
2018-Jun-10 06:00N 48°18' W 004°25'4 7.3
2018-Jun-10 05:30N 48°19' W 004°29'2 0.1
2018-Jun-09 07:36N 48°22' W 004°29'218.9
2018-Jun-09 07:30N 48°20' W 004°29'3 6.3
2018-Jun-09 07:00N 48°18' W 004°26'1 1.0
2018-Jun-09 06:03N 48°17' W 004°25'0 9.5
2018-Jun-09 06:00N 48°17' W 004°25'4 7.7
2018-Jun-09 05:30N 48°20' W 004°29'2 0.2
2018-Jun-08 16:53N 48°22' W 004°29'411.0
2018-Jun-08 16:30N 48°18' W 004°30'3 5.5
2018-Jun-08 16:00N 48°19' W 004°26'5 4.7
2018-Jun-08 15:00N 48°23' W 004°30'5 6.8
2018-Jun-08 14:16N 48°18' W 004°31'312.1
2018-Jun-08 14:00N 48°21' W 004°29'2 0.4
2018-Jun-08 07:45N 48°23' W 004°30'0 0.0
2018-Jun-08 07:30N 48°23' W 004°30'0 0.0
2018-Jun-08 07:00N 48°23' W 004°30'0 0.2
2018-Jun-08 06:24N 48°23' W 004°30'  

Dump ship's entire track history